sensor_id;sensor_type;location;lat;lon;timestamp;pressure;altitude;pressure_sealevel;temperature;humidity
70954;BME280;58618;47.490;8.736;2023-01-29T00:01:54;97401.94;;;-0.59;93.83
70954;BME280;58618;47.490;8.736;2023-01-29T00:04:22;97407.97;;;-0.60;93.63
70954;BME280;58618;47.490;8.736;2023-01-29T00:06:49;97406.38;;;-0.61;93.33
70954;BME280;58618;47.490;8.736;2023-01-29T00:09:18;97404.81;;;-0.62;93.35
70954;BME280;58618;47.490;8.736;2023-01-29T00:11:45;97412.25;;;-0.60;94.00
70954;BME280;58618;47.490;8.736;2023-01-29T00:14:13;97384.44;;;-0.75;93.96
70954;BME280;58618;47.490;8.736;2023-01-29T00:16:40;97413.81;;;-0.59;93.72
70954;BME280;58618;47.490;8.736;2023-01-29T00:19:08;97403.25;;;-0.63;93.81
70954;BME280;58618;47.490;8.736;2023-01-29T00:21:35;97404.47;;;-0.59;93.27
70954;BME280;58618;47.490;8.736;2023-01-29T00:24:02;97402.19;;;-0.54;93.36
70954;BME280;58618;47.490;8.736;2023-01-29T00:26:30;97407.66;;;-0.50;93.39
70954;BME280;58618;47.490;8.736;2023-01-29T00:28:58;97413.03;;;-0.60;93.37
70954;BME280;58618;47.490;8.736;2023-01-29T00:31:27;97406.63;;;-0.56;93.76
70954;BME280;58618;47.490;8.736;2023-01-29T00:33:54;97389.28;;;-0.59;93.51
70954;BME280;58618;47.490;8.736;2023-01-29T00:36:22;97400.63;;;-0.55;93.23
70954;BME280;58618;47.490;8.736;2023-01-29T00:38:53;97402.53;;;-0.57;93.06
70954;BME280;58618;47.490;8.736;2023-01-29T00:41:25;97394.69;;;-0.62;93.56
70954;BME280;58618;47.490;8.736;2023-01-29T00:44:12;97394.25;;;-0.65;93.96
70954;BME280;58618;47.490;8.736;2023-01-29T00:46:57;97387.25;;;-0.63;94.33
70954;BME280;58618;47.490;8.736;2023-01-29T00:49:25;97388.91;;;-0.56;93.92
70954;BME280;58618;47.490;8.736;2023-01-29T00:52:10;97394.34;;;-0.59;94.13
70954;BME280;58618;47.490;8.736;2023-01-29T00:54:53;97396.63;;;-0.64;93.91
70954;BME280;58618;47.490;8.736;2023-01-29T00:57:21;97394.94;;;-0.57;93.96
70954;BME280;58618;47.490;8.736;2023-01-29T00:59:50;97395.72;;;-0.56;93.71
70954;BME280;58618;47.490;8.736;2023-01-29T01:02:17;97374.41;;;-0.62;94.13
70954;BME280;58618;47.490;8.736;2023-01-29T01:05:03;97383.22;;;-0.58;93.81
70954;BME280;58618;47.490;8.736;2023-01-29T01:07:33;97390.81;;;-0.58;94.19
70954;BME280;58618;47.490;8.736;2023-01-29T01:10:00;97409.53;;;-0.59;94.27
70954;BME280;58618;47.490;8.736;2023-01-29T01:12:44;97414.22;;;-0.56;93.96
70954;BME280;58618;47.490;8.736;2023-01-29T01:15:13;97415.56;;;-0.60;94.51
70954;BME280;58618;47.490;8.736;2023-01-29T01:17:40;97419.44;;;-0.64;94.41
70954;BME280;58618;47.490;8.736;2023-01-29T01:20:08;97421.75;;;-0.62;94.47
70954;BME280;58618;47.490;8.736;2023-01-29T01:22:36;97433.38;;;-0.53;94.56
70954;BME280;58618;47.490;8.736;2023-01-29T01:25:04;97429.81;;;-0.59;94.24
70954;BME280;58618;47.490;8.736;2023-01-29T01:27:31;97429.81;;;-0.59;94.57
70954;BME280;58618;47.490;8.736;2023-01-29T01:29:59;97433.31;;;-0.60;94.38
70954;BME280;58618;47.490;8.736;2023-01-29T01:32:28;97440.53;;;-0.57;94.35
70954;BME280;58618;47.490;8.736;2023-01-29T01:34:55;97437.56;;;-0.60;94.84
70954;BME280;58618;47.490;8.736;2023-01-29T01:37:22;97438.19;;;-0.58;94.50
70954;BME280;58618;47.490;8.736;2023-01-29T01:39:49;97440.53;;;-0.57;94.92
70954;BME280;58618;47.490;8.736;2023-01-29T01:42:17;97442.88;;;-0.55;94.44
70954;BME280;58618;47.490;8.736;2023-01-29T01:44:51;97437.66;;;-0.54;94.43
70954;BME280;58618;47.490;8.736;2023-01-29T01:47:21;97441.16;;;-0.55;93.98
70954;BME280;58618;47.490;8.736;2023-01-29T01:49:55;97431.44;;;-0.51;94.66
70954;BME280;58618;47.490;8.736;2023-01-29T01:52:28;97431.50;;;-0.45;94.45
70954;BME280;58618;47.490;8.736;2023-01-29T01:54:57;97423.28;;;-0.47;93.93
70954;BME280;58618;47.490;8.736;2023-01-29T01:57:26;97431.91;;;-0.41;93.45
70954;BME280;58618;47.490;8.736;2023-01-29T01:59:57;97442.50;;;-0.37;93.74
70954;BME280;58618;47.490;8.736;2023-01-29T02:02:28;97434.13;;;-0.38;93.76
70954;BME280;58618;47.490;8.736;2023-01-29T02:05:15;97430.41;;;-0.35;93.43
70954;BME280;58618;47.490;8.736;2023-01-29T02:08:00;97442.50;;;-0.37;93.18
70954;BME280;58618;47.490;8.736;2023-01-29T02:10:46;97436.28;;;-0.35;92.74
70954;BME280;58618;47.490;8.736;2023-01-29T02:13:14;97443.34;;;-0.30;93.04
70954;BME280;58618;47.490;8.736;2023-01-29T02:15:43;97445.31;;;-0.26;92.45
70954;BME280;58618;47.490;8.736;2023-01-29T02:18:18;97440.69;;;-0.22;91.94
70954;BME280;58618;47.490;8.736;2023-01-29T02:21:03;97439.13;;;-0.23;92.66
70954;BME280;58618;47.490;8.736;2023-01-29T02:23:59;97446.09;;;-0.25;92.51
70954;BME280;58618;47.490;8.736;2023-01-29T02:26:49;97441.03;;;-0.25;92.30
70954;BME280;58618;47.490;8.736;2023-01-29T02:29:26;97439.28;;;-0.25;91.95
70954;BME280;58618;47.490;8.736;2023-01-29T02:32:14;97447.34;;;-0.21;92.09
70954;BME280;58618;47.490;8.736;2023-01-29T02:34:51;97434.06;;;-0.23;91.69
70954;BME280;58618;47.490;8.736;2023-01-29T02:38:04;97440.31;;;-0.19;92.42
70954;BME280;58618;47.490;8.736;2023-01-29T02:40:40;97431.16;;;-0.20;92.35
70954;BME280;58618;47.490;8.736;2023-01-29T02:43:18;97425.50;;;-0.22;92.26
70954;BME280;58618;47.490;8.736;2023-01-29T02:45:54;97426.06;;;-0.20;92.05
70954;BME280;58618;47.490;8.736;2023-01-29T02:48:31;97428.25;;;-0.17;91.54
70954;BME280;58618;47.490;8.736;2023-01-29T02:51:05;97423.19;;;-0.17;92.50
70954;BME280;58618;47.490;8.736;2023-01-29T02:53:39;97419.69;;;-0.16;92.38
70954;BME280;58618;47.490;8.736;2023-01-29T02:56:11;97411.47;;;-0.18;92.81
70954;BME280;58618;47.490;8.736;2023-01-29T02:58:42;97417.50;;;-0.19;91.33
70954;BME280;58618;47.490;8.736;2023-01-29T03:01:15;97407.50;;;-0.27;92.63
70954;BME280;58618;47.490;8.736;2023-01-29T03:03:47;97404.72;;;-0.32;92.97
70954;BME280;58618;47.490;8.736;2023-01-29T03:06:19;97416.66;;;-0.26;92.23
70954;BME280;58618;47.490;8.736;2023-01-29T03:08:52;97411.00;;;-0.28;92.59
70954;BME280;58618;47.490;8.736;2023-01-29T03:11:21;97406.66;;;-0.34;92.09
70954;BME280;58618;47.490;8.736;2023-01-29T03:13:52;97423.53;;;-0.20;91.55
70954;BME280;58618;47.490;8.736;2023-01-29T03:16:26;97418.91;;;-0.17;91.76
70954;BME280;58618;47.490;8.736;2023-01-29T03:18:56;97421.63;;;-0.18;91.52
70954;BME280;58618;47.490;8.736;2023-01-29T03:21:29;97417.69;;;-0.21;92.26
70954;BME280;58618;47.490;8.736;2023-01-29T03:24:25;97413.84;;;-0.17;91.33
70954;BME280;58618;47.490;8.736;2023-01-29T03:27:13;97416.53;;;-0.18;92.16
70954;BME280;58618;47.490;8.736;2023-01-29T03:30:00;97425.97;;;-0.12;92.07
70954;BME280;58618;47.490;8.736;2023-01-29T03:32:49;97423.59;;;-0.14;91.46
70954;BME280;58618;47.490;8.736;2023-01-29T03:35:24;97409.66;;;-0.24;92.04
70954;BME280;58618;47.490;8.736;2023-01-29T03:38:00;97413.41;;;-0.20;91.95
70954;BME280;58618;47.490;8.736;2023-01-29T03:40:49;97425.13;;;-0.19;91.76
70954;BME280;58618;47.490;8.736;2023-01-29T03:43:24;97415.16;;;-0.21;91.72
70954;BME280;58618;47.490;8.736;2023-01-29T03:46:01;97414.63;;;-0.16;91.72
70954;BME280;58618;47.490;8.736;2023-01-29T03:48:34;97409.91;;;-0.19;92.00
70954;BME280;58618;47.490;8.736;2023-01-29T03:51:13;97420.84;;;-0.19;92.49
70954;BME280;58618;47.490;8.736;2023-01-29T03:53:46;97415.38;;;-0.16;92.56
70954;BME280;58618;47.490;8.736;2023-01-29T03:56:22;97410.69;;;-0.19;92.00
70954;BME280;58618;47.490;8.736;2023-01-29T03:58:56;97411.47;;;-0.18;91.43
70954;BME280;58618;47.490;8.736;2023-01-29T04:01:32;97399.75;;;-0.19;92.14
70954;BME280;58618;47.490;8.736;2023-01-29T04:04:10;97394.88;;;-0.21;91.89
70954;BME280;58618;47.490;8.736;2023-01-29T04:06:43;97401.94;;;-0.16;89.34
70954;BME280;58618;47.490;8.736;2023-01-29T04:09:15;97395.31;;;-0.17;89.84
70954;BME280;58618;47.490;8.736;2023-01-29T04:11:51;97397.47;;;-0.14;90.31
70954;BME280;58618;47.490;8.736;2023-01-29T04:14:21;97387.69;;;-0.17;89.39
70954;BME280;58618;47.490;8.736;2023-01-29T04:16:50;97384.56;;;-0.19;89.15
70954;BME280;58618;47.490;8.736;2023-01-29T04:19:20;97386.91;;;-0.18;88.00
70954;BME280;58618;47.490;8.736;2023-01-29T04:21:49;97393.56;;;-0.17;90.17
70954;BME280;58618;47.490;8.736;2023-01-29T04:24:21;97390.41;;;-0.19;89.22
70954;BME280;58618;47.490;8.736;2023-01-29T04:26:55;97385.16;;;-0.17;89.96
70954;BME280;58618;47.490;8.736;2023-01-29T04:29:39;97390.59;;;-0.20;89.55
70954;BME280;58618;47.490;8.736;2023-01-29T04:32:15;97406.78;;;-0.21;89.71
70954;BME280;58618;47.490;8.736;2023-01-29T04:34:57;97381.72;;;-0.31;90.52
70954;BME280;58618;47.490;8.736;2023-01-29T04:37:34;97390.34;;;-0.25;90.15
70954;BME280;58618;47.490;8.736;2023-01-29T04:40:13;97391.56;;;-0.21;89.03
70954;BME280;58618;47.490;8.736;2023-01-29T04:42:48;97385.72;;;-0.22;89.03
70954;BME280;58618;47.490;8.736;2023-01-29T04:45:27;97380.44;;;-0.20;89.28
70954;BME280;58618;47.490;8.736;2023-01-29T04:48:03;97383.97;;;-0.21;89.35
70954;BME280;58618;47.490;8.736;2023-01-29T04:50:38;97391.56;;;-0.21;89.05
70954;BME280;58618;47.490;8.736;2023-01-29T04:53:10;97393.50;;;-0.23;88.94
70954;BME280;58618;47.490;8.736;2023-01-29T04:55:42;97388.44;;;-0.23;89.51
70954;BME280;58618;47.490;8.736;2023-01-29T04:58:14;97392.34;;;-0.21;87.63
70954;BME280;58618;47.490;8.736;2023-01-29T05:00:47;97384.22;;;-0.16;86.78
70954;BME280;58618;47.490;8.736;2023-01-29T05:03:16;97384.25;;;-0.10;85.33
70954;BME280;58618;47.490;8.736;2023-01-29T05:05:47;97390.03;;;-0.16;85.69
70954;BME280;58618;47.490;8.736;2023-01-29T05:08:17;97385.94;;;-0.17;85.31
70954;BME280;58618;47.490;8.736;2023-01-29T05:10:47;97394.53;;;-0.18;86.05
70954;BME280;58618;47.490;8.736;2023-01-29T05:13:16;97395.78;;;-0.28;86.49
70954;BME280;58618;47.490;8.736;2023-01-29T05:15:49;97401.34;;;-0.18;86.51
70954;BME280;58618;47.490;8.736;2023-01-29T05:18:18;97411.47;;;-0.18;87.07
70954;BME280;58618;47.490;8.736;2023-01-29T05:20:48;97409.13;;;-0.20;86.83
70954;BME280;58618;47.490;8.736;2023-01-29T05:23:16;97420.03;;;-0.19;87.74
70954;BME280;58618;47.490;8.736;2023-01-29T05:25:45;97413.41;;;-0.20;88.30
70954;BME280;58618;47.490;8.736;2023-01-29T05:28:12;97429.84;;;-0.16;88.09
70954;BME280;58618;47.490;8.736;2023-01-29T05:30:43;97426.31;;;-0.15;85.18
70954;BME280;58618;47.490;8.736;2023-01-29T05:33:12;97432.06;;;-0.07;84.63
70954;BME280;58618;47.490;8.736;2023-01-29T05:35:40;97427.78;;;-0.06;85.17
70954;BME280;58618;47.490;8.736;2023-01-29T05:38:10;97435.38;;;-0.06;84.65
70954;BME280;58618;47.490;8.736;2023-01-29T05:40:38;97429.09;;;-0.10;84.36
70954;BME280;58618;47.490;8.736;2023-01-29T05:43:13;97437.31;;;-0.08;83.89
70954;BME280;58618;47.490;8.736;2023-01-29T05:45:41;97443.09;;;-0.14;83.91
70954;BME280;58618;47.490;8.736;2023-01-29T05:48:08;97440.56;;;-0.14;84.00
70954;BME280;58618;47.490;8.736;2023-01-29T05:50:36;97446.25;;;-0.12;84.50
70954;BME280;58618;47.490;8.736;2023-01-29T05:53:03;97458.31;;;-0.14;84.32
70954;BME280;58618;47.490;8.736;2023-01-29T05:55:32;97448.53;;;-0.17;85.49
70954;BME280;58618;47.490;8.736;2023-01-29T05:58:00;97456.16;;;-0.17;85.73
70954;BME280;58618;47.490;8.736;2023-01-29T06:00:27;97463.03;;;-0.11;85.75
70954;BME280;58618;47.490;8.736;2023-01-29T06:03:26;97440.09;;;-0.24;86.31
70954;BME280;58618;47.490;8.736;2023-01-29T06:06:10;97446.25;;;-0.12;86.66
70954;BME280;58618;47.490;8.736;2023-01-29T06:08:38;97460.84;;;-0.14;85.63
70954;BME280;58618;47.490;8.736;2023-01-29T06:11:09;97464.34;;;-0.15;86.12
70954;BME280;58618;47.490;8.736;2023-01-29T06:13:37;97451.19;;;-0.25;86.48
70954;BME280;58618;47.490;8.736;2023-01-29T06:16:06;97448.06;;;-0.27;85.90
70954;BME280;58618;47.490;8.736;2023-01-29T06:18:35;97465.31;;;-0.16;86.32
70954;BME280;58618;47.490;8.736;2023-01-29T06:21:04;97457.28;;;-0.20;87.28
70954;BME280;58618;47.490;8.736;2023-01-29T06:23:33;97457.53;;;-0.15;87.20
70954;BME280;58618;47.490;8.736;2023-01-29T06:26:01;97466.28;;;-0.17;86.88
70954;BME280;58618;47.490;8.736;2023-01-29T06:28:30;97467.88;;;-0.16;86.37
70954;BME280;58618;47.490;8.736;2023-01-29T06:30:59;97470.19;;;-0.15;86.19
70954;BME280;58618;47.490;8.736;2023-01-29T06:33:27;97460.84;;;-0.14;85.94
70954;BME280;58618;47.490;8.736;2023-01-29T06:35:55;97464.09;;;-0.20;85.64
70954;BME280;58618;47.490;8.736;2023-01-29T06:38:23;97479.38;;;-0.14;86.23
70954;BME280;58618;47.490;8.736;2023-01-29T06:40:51;97478.59;;;-0.14;86.64
70954;BME280;58618;47.490;8.736;2023-01-29T06:43:19;97484.28;;;-0.12;86.80
70954;BME280;58618;47.490;8.736;2023-01-29T06:45:49;97486.09;;;-0.06;85.67
70954;BME280;58618;47.490;8.736;2023-01-29T06:48:17;97489.19;;;-0.11;85.66
70954;BME280;58618;47.490;8.736;2023-01-29T06:50:44;97491.88;;;-0.12;86.27
70954;BME280;58618;47.490;8.736;2023-01-29T06:53:12;97502.97;;;-0.13;84.81
70954;BME280;58618;47.490;8.736;2023-01-29T06:55:39;97495.38;;;-0.13;86.20
70954;BME280;58618;47.490;8.736;2023-01-29T06:58:07;97493.47;;;-0.11;85.79
70954;BME280;58618;47.490;8.736;2023-01-29T07:00:34;97493.09;;;-0.08;86.00
70954;BME280;58618;47.490;8.736;2023-01-29T07:03:03;97488.72;;;-0.14;85.96
70954;BME280;58618;47.490;8.736;2023-01-29T07:05:31;97484.44;;;-0.14;85.74
70954;BME280;58618;47.490;8.736;2023-01-29T07:07:58;97482.53;;;-0.12;85.85
70954;BME280;58618;47.490;8.736;2023-01-29T07:10:25;97487.28;;;-0.02;85.02
70954;BME280;58618;47.490;8.736;2023-01-29T07:12:52;97471.59;;;-0.12;84.99
70954;BME280;58618;47.490;8.736;2023-01-29T07:15:20;97477.47;;;-0.12;85.21
70954;BME280;58618;47.490;8.736;2023-01-29T07:17:57;97461.81;;;-0.15;86.02
70954;BME280;58618;47.490;8.736;2023-01-29T07:20:29;97467.66;;;-0.15;84.51
70954;BME280;58618;47.490;8.736;2023-01-29T07:22:56;97466.88;;;-0.15;85.01
70954;BME280;58618;47.490;8.736;2023-01-29T07:25:24;97446.91;;;-0.25;84.78
70954;BME280;58618;47.490;8.736;2023-01-29T07:27:52;97463.03;;;-0.11;84.78
70954;BME280;58618;47.490;8.736;2023-01-29T07:30:19;97463.03;;;-0.11;84.88
70954;BME280;58618;47.490;8.736;2023-01-29T07:32:47;97468.09;;;-0.11;84.58
70954;BME280;58618;47.490;8.736;2023-01-29T07:35:14;97475.34;;;-0.08;84.01
70954;BME280;58618;47.490;8.736;2023-01-29T07:38:01;97451.63;;;-0.22;84.51
70954;BME280;58618;47.490;8.736;2023-01-29T07:40:28;97463.84;;;-0.04;84.97
70954;BME280;58618;47.490;8.736;2023-01-29T07:42:59;97467.88;;;0.05;84.68
70954;BME280;58618;47.490;8.736;2023-01-29T07:45:27;97462.78;;;0.05;85.13
70954;BME280;58618;47.490;8.736;2023-01-29T07:47:55;97464.72;;;0.03;85.36
70954;BME280;58618;47.490;8.736;2023-01-29T07:50:23;97456.88;;;-0.02;84.63
70954;BME280;58618;47.490;8.736;2023-01-29T07:52:53;97470.97;;;0.07;83.67
70954;BME280;58618;47.490;8.736;2023-01-29T07:55:21;97458.84;;;0.03;83.50
70954;BME280;58618;47.490;8.736;2023-01-29T07:57:54;97461.56;;;0.01;82.96
70954;BME280;58618;47.490;8.736;2023-01-29T08:00:21;97470.97;;;0.07;82.34
70954;BME280;58618;47.490;8.736;2023-01-29T08:02:48;97479.22;;;0.09;83.63
70954;BME280;58618;47.490;8.736;2023-01-29T08:05:18;97473.41;;;0.15;83.38
70954;BME280;58618;47.490;8.736;2023-01-29T08:07:51;97457.72;;;0.05;82.40
70954;BME280;58618;47.490;8.736;2023-01-29T08:10:19;97471.84;;;0.14;82.06
70954;BME280;58618;47.490;8.736;2023-01-29T08:12:53;97451.53;;;0.14;81.33
70954;BME280;58618;47.490;8.736;2023-01-29T08:15:20;97463.63;;;0.12;81.73
70954;BME280;58618;47.490;8.736;2023-01-29T08:17:48;97466.38;;;0.17;82.36
70954;BME280;58618;47.490;8.736;2023-01-29T08:20:16;97459.38;;;0.19;81.79
70954;BME280;58618;47.490;8.736;2023-01-29T08:22:44;97472.00;;;0.34;81.04
70954;BME280;58618;47.490;8.736;2023-01-29T08:25:11;97479.91;;;0.24;81.01
70954;BME280;58618;47.490;8.736;2023-01-29T08:27:39;97473.50;;;0.28;81.26
70954;BME280;58618;47.490;8.736;2023-01-29T08:30:09;97469.03;;;0.30;79.06
70954;BME280;58618;47.490;8.736;2023-01-29T08:32:37;97473.16;;;0.31;78.48
70954;BME280;58618;47.490;8.736;2023-01-29T08:35:04;97478.88;;;0.40;78.56
70954;BME280;58618;47.490;8.736;2023-01-29T08:37:31;97481.00;;;0.36;79.56
70954;BME280;58618;47.490;8.736;2023-01-29T08:39:59;97467.69;;;0.34;78.88
70954;BME280;58618;47.490;8.736;2023-01-29T08:42:26;97479.44;;;0.35;77.57
70954;BME280;58618;47.490;8.736;2023-01-29T08:44:53;97474.59;;;0.40;76.97
70954;BME280;58618;47.490;8.736;2023-01-29T08:47:22;97476.75;;;0.43;76.90
70954;BME280;58618;47.490;8.736;2023-01-29T08:49:49;97480.25;;;0.42;78.47
70954;BME280;58618;47.490;8.736;2023-01-29T08:52:17;97483.16;;;0.39;77.23
70954;BME280;58618;47.490;8.736;2023-01-29T08:54:44;97484.97;;;0.46;77.01
70954;BME280;58618;47.490;8.736;2023-01-29T08:57:11;97486.28;;;0.63;76.50
70954;BME280;58618;47.490;8.736;2023-01-29T08:59:38;97492.13;;;0.63;77.09
70954;BME280;58618;47.490;8.736;2023-01-29T09:02:05;97498.59;;;0.66;77.29
70954;BME280;58618;47.490;8.736;2023-01-29T09:04:33;97486.16;;;0.50;76.34
70954;BME280;58618;47.490;8.736;2023-01-29T09:07:01;97500.72;;;0.62;76.42
70954;BME280;58618;47.490;8.736;2023-01-29T09:09:28;97498.47;;;0.74;75.80
70954;BME280;58618;47.490;8.736;2023-01-29T09:11:55;97505.09;;;0.75;75.59
70954;BME280;58618;47.490;8.736;2023-01-29T09:14:22;97494.63;;;0.57;76.21
70954;BME280;58618;47.490;8.736;2023-01-29T09:16:50;97505.50;;;0.78;75.72
70954;BME280;58618;47.490;8.736;2023-01-29T09:19:17;97503.44;;;0.61;75.98
70954;BME280;58618;47.490;8.736;2023-01-29T09:21:45;97513.19;;;0.64;76.25
70954;BME280;58618;47.490;8.736;2023-01-29T09:24:18;97513.69;;;0.74;76.73
70954;BME280;58618;47.490;8.736;2023-01-29T09:26:58;97520.75;;;0.78;77.07
70954;BME280;58618;47.490;8.736;2023-01-29T09:29:28;97522.00;;;0.89;76.23
70954;BME280;58618;47.490;8.736;2023-01-29T09:32:13;97515.34;;;0.88;76.62
70954;BME280;58618;47.490;8.736;2023-01-29T09:34:41;97513.06;;;0.72;76.60
70954;BME280;58618;47.490;8.736;2023-01-29T09:37:11;97513.16;;;0.85;76.26
70954;BME280;58618;47.490;8.736;2023-01-29T09:39:39;97502.69;;;0.67;76.07
70954;BME280;58618;47.490;8.736;2023-01-29T09:42:11;97516.06;;;0.82;77.36
70954;BME280;58618;47.490;8.736;2023-01-29T09:44:50;97497.28;;;0.76;76.64
70954;BME280;58618;47.490;8.736;2023-01-29T09:47:23;97518.84;;;0.87;76.90
70954;BME280;58618;47.490;8.736;2023-01-29T09:49:56;97530.69;;;1.08;76.30
70954;BME280;58618;47.490;8.736;2023-01-29T09:52:29;97523.31;;;0.85;77.21
70954;BME280;58618;47.490;8.736;2023-01-29T09:55:02;97509.41;;;0.81;77.43
70954;BME280;58618;47.490;8.736;2023-01-29T09:57:38;97531.38;;;0.89;76.50
70954;BME280;58618;47.490;8.736;2023-01-29T10:00:13;97536.97;;;1.12;77.46
70954;BME280;58618;47.490;8.736;2023-01-29T10:02:58;97529.53;;;1.10;76.25
70954;BME280;58618;47.490;8.736;2023-01-29T10:05:51;97524.47;;;1.10;76.85
70954;BME280;58618;47.490;8.736;2023-01-29T10:08:32;97522.19;;;1.28;76.02
70954;BME280;58618;47.490;8.736;2023-01-29T10:11:11;97532.44;;;1.42;76.50
70954;BME280;58618;47.490;8.736;2023-01-29T10:13:49;97524.13;;;1.20;76.05
70954;BME280;58618;47.490;8.736;2023-01-29T10:16:34;97536.56;;;1.08;76.87
70954;BME280;58618;47.490;8.736;2023-01-29T10:19:28;97539.72;;;1.17;76.85
70954;BME280;58618;47.490;8.736;2023-01-29T10:22:28;97530.72;;;1.14;76.54
70954;BME280;58618;47.490;8.736;2023-01-29T10:25:09;97540.09;;;1.14;77.45
70954;BME280;58618;47.490;8.736;2023-01-29T10:27:40;97534.75;;;1.02;76.92
70954;BME280;58618;47.490;8.736;2023-01-29T10:30:20;97554.63;;;1.20;77.54
70954;BME280;58618;47.490;8.736;2023-01-29T10:32:50;97546.28;;;0.98;77.12
70954;BME280;58618;47.490;8.736;2023-01-29T10:35:21;97552.53;;;1.02;77.44
70954;BME280;58618;47.490;8.736;2023-01-29T10:37:51;97549.19;;;0.95;77.63
70954;BME280;58618;47.490;8.736;2023-01-29T10:40:23;97540.34;;;0.91;77.89
70954;BME280;58618;47.490;8.736;2023-01-29T10:42:58;97545.66;;;0.96;77.55
70954;BME280;58618;47.490;8.736;2023-01-29T10:45:33;97541.63;;;1.08;76.95
70954;BME280;58618;47.490;8.736;2023-01-29T10:51:17;97534.09;;;1.21;75.76
70954;BME280;58618;47.490;8.736;2023-01-29T10:54:00;97525.22;;;1.04;76.04
70954;BME280;58618;47.490;8.736;2023-01-29T10:56:43;97521.69;;;1.05;77.23
70954;BME280;58618;47.490;8.736;2023-01-29T10:59:30;97518.88;;;1.28;76.73
70954;BME280;58618;47.490;8.736;2023-01-29T11:02:12;97516.22;;;1.08;76.14
70954;BME280;58618;47.490;8.736;2023-01-29T11:04:41;97511.94;;;1.09;76.91
70954;BME280;58618;47.490;8.736;2023-01-29T11:07:09;97511.56;;;1.12;77.47
70954;BME280;58618;47.490;8.736;2023-01-29T11:09:41;97520.94;;;1.11;77.70
70954;BME280;58618;47.490;8.736;2023-01-29T11:12:13;97515.09;;;1.17;77.59
70954;BME280;58618;47.490;8.736;2023-01-29T11:14:43;97513.38;;;1.24;76.51
70954;BME280;58618;47.490;8.736;2023-01-29T11:17:15;97506.50;;;1.18;75.68
70954;BME280;58618;47.490;8.736;2023-01-29T11:19:45;97506.91;;;1.22;75.86
70954;BME280;58618;47.490;8.736;2023-01-29T11:22:14;97504.47;;;1.42;76.40
70954;BME280;58618;47.490;8.736;2023-01-29T11:24:41;97498.94;;;1.79;76.00
70954;BME280;58618;47.490;8.736;2023-01-29T11:27:22;97496.59;;;1.84;74.39
70954;BME280;58618;47.490;8.736;2023-01-29T11:29:52;97491.41;;;1.51;75.17
70954;BME280;58618;47.490;8.736;2023-01-29T11:32:32;97493.94;;;1.45;75.14
70954;BME280;58618;47.490;8.736;2023-01-29T11:35:02;97482.69;;;1.74;76.27
70954;BME280;58618;47.490;8.736;2023-01-29T11:37:32;97462.81;;;1.36;74.50
70954;BME280;58618;47.490;8.736;2023-01-29T11:40:01;97485.16;;;1.47;75.38
70954;BME280;58618;47.490;8.736;2023-01-29T11:42:49;97480.28;;;1.52;75.83
70954;BME280;58618;47.490;8.736;2023-01-29T11:45:24;97477.34;;;1.55;74.99
70954;BME280;58618;47.490;8.736;2023-01-29T11:47:53;97478.59;;;1.92;75.24
70954;BME280;58618;47.490;8.736;2023-01-29T11:50:23;97477.38;;;1.75;73.98
70954;BME280;58618;47.490;8.736;2023-01-29T11:52:51;97475.94;;;1.46;75.38
70954;BME280;58618;47.490;8.736;2023-01-29T11:55:21;97469.06;;;1.34;75.84
70954;BME280;58618;47.490;8.736;2023-01-29T11:57:52;97472.97;;;1.36;76.08
70954;BME280;58618;47.490;8.736;2023-01-29T12:00:23;97476.50;;;1.35;76.33
70954;BME280;58618;47.490;8.736;2023-01-29T12:02:53;97469.53;;;1.57;75.72
70954;BME280;58618;47.490;8.736;2023-01-29T12:05:23;97468.63;;;1.84;75.17
70954;BME280;58618;47.490;8.736;2023-01-29T12:07:53;97460.63;;;2.13;75.27
70954;BME280;58618;47.490;8.736;2023-01-29T12:10:31;97467.63;;;1.85;74.13
70954;BME280;58618;47.490;8.736;2023-01-29T12:13:04;97471.78;;;1.99;74.02
70954;BME280;58618;47.490;8.736;2023-01-29T12:15:32;97466.50;;;1.94;73.70
70954;BME280;58618;47.490;8.736;2023-01-29T12:18:05;97457.09;;;2.01;73.09
70954;BME280;58618;47.490;8.736;2023-01-29T12:20:37;97468.84;;;2.02;72.00
70954;BME280;58618;47.490;8.736;2023-01-29T12:23:20;97451.63;;;2.04;73.41
70954;BME280;58618;47.490;8.736;2023-01-29T12:25:58;97454.38;;;2.16;73.00
70954;BME280;58618;47.490;8.736;2023-01-29T12:28:40;97462.59;;;2.25;73.18
70954;BME280;58618;47.490;8.736;2023-01-29T12:31:20;97453.00;;;2.13;73.12
70954;BME280;58618;47.490;8.736;2023-01-29T12:33:51;97456.13;;;2.35;72.27
70954;BME280;58618;47.490;8.736;2023-01-29T12:36:23;97445.34;;;2.40;72.49
70954;BME280;58618;47.490;8.736;2023-01-29T12:38:53;97448.47;;;2.55;70.61
70954;BME280;58618;47.490;8.736;2023-01-29T12:41:38;97450.44;;;2.53;69.74
70954;BME280;58618;47.490;8.736;2023-01-29T12:44:13;97452.00;;;2.67;70.28
70954;BME280;58618;47.490;8.736;2023-01-29T12:46:45;97448.91;;;2.26;70.69
70954;BME280;58618;47.490;8.736;2023-01-29T12:49:18;97455.75;;;2.32;71.00
70954;BME280;58618;47.490;8.736;2023-01-29T12:51:54;97447.13;;;2.46;70.56
70954;BME280;58618;47.490;8.736;2023-01-29T12:54:31;97448.50;;;2.42;70.55
70954;BME280;58618;47.490;8.736;2023-01-29T12:57:03;97435.19;;;2.13;72.11
70954;BME280;58618;47.490;8.736;2023-01-29T12:59:40;97441.44;;;2.44;70.90
70954;BME280;58618;47.490;8.736;2023-01-29T13:02:19;97441.06;;;1.94;73.27
70954;BME280;58618;47.490;8.736;2023-01-29T13:04:54;97438.28;;;1.76;73.20
70954;BME280;58618;47.490;8.736;2023-01-29T13:07:27;97431.66;;;2.01;72.23
70954;BME280;58618;47.490;8.736;2023-01-29T13:10:02;97428.13;;;1.96;72.55
70954;BME280;58618;47.490;8.736;2023-01-29T13:12:32;97429.91;;;2.22;71.70
70954;BME280;58618;47.490;8.736;2023-01-29T13:15:02;97426.38;;;2.23;70.71
70954;BME280;58618;47.490;8.736;2023-01-29T13:17:34;97435.56;;;2.30;71.36
70954;BME280;58618;47.490;8.736;2023-01-29T13:20:04;97422.66;;;2.32;71.06
70954;BME280;58618;47.490;8.736;2023-01-29T13:22:38;97427.72;;;2.45;71.65
70954;BME280;58618;47.490;8.736;2023-01-29T13:25:12;97424.22;;;2.46;71.06
70954;BME280;58618;47.490;8.736;2023-01-29T13:27:41;97423.78;;;2.49;71.23
70954;BME280;58618;47.490;8.736;2023-01-29T13:30:25;97422.84;;;2.37;71.85
70954;BME280;58618;47.490;8.736;2023-01-29T13:32:53;97418.94;;;2.41;71.45
70954;BME280;58618;47.490;8.736;2023-01-29T13:35:35;97419.53;;;2.43;71.36
70954;BME280;58618;47.490;8.736;2023-01-29T13:38:04;97415.41;;;2.35;70.87